createdAt,value
2023-01-29T00:01:56.330Z,100.00
2023-01-29T00:05:26.043Z,100.00
2023-01-29T00:08:39.645Z,100.00
2023-01-29T00:11:52.321Z,99.54
2023-01-29T00:15:05.079Z,99.42
2023-01-29T00:18:17.774Z,97.95
2023-01-29T00:21:33.492Z,98.12
2023-01-29T00:24:46.126Z,99.00
2023-01-29T00:27:58.590Z,99.70
2023-01-29T00:31:13.224Z,99.94
2023-01-29T00:34:25.632Z,99.83
2023-01-29T00:37:38.396Z,100.00
2023-01-29T00:41:09.692Z,100.00
2023-01-29T00:44:40.735Z,100.00
2023-01-29T00:47:53.127Z,100.00
2023-01-29T00:51:06.722Z,100.00
2023-01-29T00:54:19.277Z,100.00
2023-01-29T00:57:32.367Z,100.00
2023-01-29T01:00:44.803Z,100.00
2023-01-29T01:03:58.503Z,100.00
2023-01-29T01:10:41.042Z,100.00
2023-01-29T01:13:54.535Z,100.00
2023-01-29T01:17:07.192Z,100.00
2023-01-29T01:20:19.691Z,100.00
2023-01-29T01:23:32.422Z,100.00
2023-01-29T01:26:44.809Z,100.00
2023-01-29T01:29:58.024Z,100.00
2023-01-29T01:33:10.378Z,100.00
2023-01-29T01:36:22.999Z,100.00
2023-01-29T01:39:35.371Z,100.00
2023-01-29T01:42:51.826Z,100.00
2023-01-29T01:46:04.489Z,100.00
2023-01-29T01:49:18.473Z,100.00
2023-01-29T01:52:31.245Z,100.00
2023-01-29T01:55:52.487Z,100.00
2023-01-29T01:59:05.790Z,100.00
2023-01-29T02:02:36.963Z,100.00
2023-01-29T02:06:08.272Z,100.00
2023-01-29T02:09:38.874Z,100.00
2023-01-29T02:12:51.567Z,100.00
2023-01-29T02:16:04.023Z,100.00
2023-01-29T02:19:44.272Z,100.00
2023-01-29T02:23:34.369Z,100.00
2023-01-29T02:27:13.671Z,100.00
2023-01-29T02:30:31.931Z,100.00
2023-01-29T02:34:06.154Z,100.00
2023-01-29T02:37:18.607Z,100.00
2023-01-29T02:40:37.092Z,100.00
2023-01-29T02:44:04.626Z,100.00
2023-01-29T02:47:23.253Z,100.00
2023-01-29T02:50:41.178Z,100.00
2023-01-29T02:54:10.292Z,100.00
2023-01-29T02:57:25.483Z,100.00
2023-01-29T03:00:40.331Z,100.00
2023-01-29T03:03:53.582Z,100.00
2023-01-29T03:07:10.706Z,100.00
2023-01-29T03:10:35.411Z,100.00
2023-01-29T03:13:56.187Z,100.00
2023-01-29T03:17:10.564Z,100.00
2023-01-29T03:20:26.522Z,100.00
2023-01-29T03:23:57.603Z,100.00
2023-01-29T03:27:29.410Z,100.00
2023-01-29T03:31:06.768Z,100.00
2023-01-29T03:34:28.642Z,100.00
2023-01-29T03:37:43.583Z,100.00
2023-01-29T03:41:00.305Z,100.00
2023-01-29T03:44:30.766Z,100.00
2023-01-29T03:47:55.871Z,100.00
2023-01-29T03:51:12.097Z,100.00
2023-01-29T03:54:39.271Z,100.00
2023-01-29T03:58:06.492Z,100.00
2023-01-29T04:01:48.901Z,100.00
2023-01-29T04:05:07.755Z,100.00
2023-01-29T04:08:25.117Z,100.00
2023-01-29T04:11:38.767Z,100.00
2023-01-29T04:14:51.113Z,100.00
2023-01-29T04:18:04.135Z,100.00
2023-01-29T04:21:18.503Z,100.00
2023-01-29T04:24:31.191Z,100.00
2023-01-29T04:27:50.375Z,100.00
2023-01-29T04:31:06.794Z,100.00
2023-01-29T04:34:29.313Z,100.00
2023-01-29T04:37:48.354Z,100.00
2023-01-29T04:41:11.742Z,100.00
2023-01-29T04:44:42.627Z,100.00
2023-01-29T04:48:04.016Z,100.00
2023-01-29T04:51:21.220Z,100.00
2023-01-29T04:55:29.437Z,100.00
2023-01-29T04:58:44.626Z,100.00
2023-01-29T05:01:57.051Z,100.00
2023-01-29T05:05:09.681Z,100.00
2023-01-29T05:08:23.219Z,100.00
2023-01-29T05:11:36.186Z,100.00
2023-01-29T05:14:48.508Z,100.00
2023-01-29T05:18:03.220Z,100.00
2023-01-29T05:21:15.643Z,100.00
2023-01-29T05:24:28.305Z,100.00
2023-01-29T05:27:59.264Z,100.00
2023-01-29T05:31:12.135Z,100.00
2023-01-29T05:34:24.648Z,100.00
2023-01-29T05:37:37.444Z,100.00
2023-01-29T05:40:49.827Z,100.00
2023-01-29T05:44:02.419Z,100.00
2023-01-29T05:47:14.751Z,100.00
2023-01-29T05:50:27.560Z,100.00
2023-01-29T05:53:40.278Z,100.00
2023-01-29T05:56:55.474Z,100.00
2023-01-29T06:00:08.797Z,100.00
2023-01-29T06:03:24.790Z,100.00
2023-01-29T06:06:37.385Z,100.00
2023-01-29T06:09:49.739Z,100.00
2023-01-29T06:13:02.544Z,100.00
2023-01-29T06:16:15.323Z,100.00
2023-01-29T06:19:27.918Z,100.00
2023-01-29T06:22:40.246Z,100.00
2023-01-29T06:25:52.867Z,100.00
2023-01-29T06:29:05.272Z,100.00
2023-01-29T06:32:17.908Z,100.00
2023-01-29T06:35:30.297Z,100.00
2023-01-29T06:38:42.967Z,100.00
2023-01-29T06:41:55.341Z,100.00
2023-01-29T06:45:08.507Z,100.00
2023-01-29T06:48:20.878Z,100.00
2023-01-29T06:51:33.477Z,100.00
2023-01-29T06:54:45.835Z,100.00
2023-01-29T06:57:58.509Z,100.00
2023-01-29T07:01:15.516Z,100.00
2023-01-29T07:04:37.907Z,100.00
2023-01-29T07:07:50.276Z,100.00
2023-01-29T07:11:03.451Z,100.00
2023-01-29T07:14:15.821Z,100.00
2023-01-29T07:17:28.468Z,100.00
2023-01-29T07:20:41.090Z,100.00
2023-01-29T07:23:53.745Z,100.00
2023-01-29T07:27:06.151Z,100.00
2023-01-29T07:30:19.132Z,100.00
2023-01-29T07:33:32.005Z,100.00
2023-01-29T07:36:44.623Z,100.00
2023-01-29T07:39:56.967Z,100.00
2023-01-29T07:43:10.127Z,99.97
2023-01-29T07:46:23.603Z,99.53
2023-01-29T07:49:36.218Z,99.46
2023-01-29T07:52:48.579Z,100.00
2023-01-29T07:56:01.251Z,100.00
2023-01-29T07:59:13.624Z,100.00
2023-01-29T08:02:26.256Z,99.86
2023-01-29T08:05:38.868Z,99.91
2023-01-29T08:08:52.245Z,99.76
2023-01-29T08:12:05.056Z,98.69
2023-01-29T08:15:17.450Z,97.28
2023-01-29T08:18:31.576Z,97.79
2023-01-29T08:21:43.983Z,97.52
2023-01-29T08:25:06.293Z,96.99
2023-01-29T08:28:20.425Z,96.01
2023-01-29T08:31:33.620Z,96.11
2023-01-29T08:34:46.041Z,94.42
2023-01-29T08:38:00.028Z,95.23
2023-01-29T08:41:12.383Z,94.81
2023-01-29T08:44:24.991Z,94.63
2023-01-29T08:47:37.347Z,93.27
2023-01-29T08:50:50.129Z,93.41
2023-01-29T08:54:02.467Z,93.57
2023-01-29T08:57:15.094Z,94.03
2023-01-29T09:00:27.461Z,94.59
2023-01-29T09:03:41.219Z,94.93
2023-01-29T09:06:53.599Z,95.50
2023-01-29T09:10:06.419Z,94.88
2023-01-29T09:13:18.726Z,95.21
2023-01-29T09:16:31.398Z,95.71
2023-01-29T09:19:43.801Z,95.24
2023-01-29T09:22:56.835Z,95.94
2023-01-29T09:26:09.688Z,94.89
2023-01-29T09:29:22.333Z,94.88
2023-01-29T09:32:53.608Z,94.58
2023-01-29T09:36:07.302Z,94.14
2023-01-29T09:39:19.603Z,94.01
2023-01-29T09:42:42.001Z,93.88
2023-01-29T09:46:02.218Z,94.69
2023-01-29T09:49:16.187Z,94.16
2023-01-29T09:52:32.317Z,94.51
2023-01-29T09:55:54.396Z,93.53
2023-01-29T09:59:08.327Z,92.72
2023-01-29T10:02:39.160Z,92.90
2023-01-29T10:05:55.751Z,93.36
2023-01-29T10:09:32.616Z,93.13
2023-01-29T10:12:54.005Z,92.70
2023-01-29T10:16:21.989Z,91.52
2023-01-29T10:19:56.371Z,91.20
2023-01-29T10:23:18.928Z,91.76
2023-01-29T10:26:31.625Z,91.68
2023-01-29T10:29:44.544Z,91.97
2023-01-29T10:32:59.905Z,91.43
2023-01-29T10:36:15.389Z,90.94
2023-01-29T10:39:30.244Z,90.86
2023-01-29T10:42:46.403Z,90.22
2023-01-29T10:46:26.576Z,90.11
2023-01-29T10:50:17.797Z,89.68
2023-01-29T10:54:14.986Z,89.40
2023-01-29T10:57:48.935Z,89.17
2023-01-29T11:01:01.552Z,88.63
2023-01-29T11:04:13.888Z,88.11
2023-01-29T11:07:27.848Z,88.44
2023-01-29T11:11:11.680Z,88.83
2023-01-29T11:14:28.530Z,87.77
2023-01-29T11:17:41.789Z,87.69
2023-01-29T11:21:03.042Z,87.67
2023-01-29T11:24:18.759Z,88.02
2023-01-29T11:27:33.216Z,87.58
2023-01-29T11:30:45.575Z,86.69
2023-01-29T11:34:18.551Z,87.06
2023-01-29T11:37:41.083Z,86.92
2023-01-29T11:40:54.014Z,86.68
2023-01-29T11:44:18.333Z,86.07
2023-01-29T11:47:31.011Z,85.92
2023-01-29T11:50:43.474Z,85.60
2023-01-29T11:53:57.391Z,85.17
2023-01-29T11:57:24.777Z,84.84
2023-01-29T12:00:37.195Z,84.48
2023-01-29T12:03:53.069Z,83.83
2023-01-29T12:07:05.511Z,83.61
2023-01-29T12:10:35.512Z,83.29
2023-01-29T12:13:47.852Z,82.72
2023-01-29T12:17:07.514Z,81.69
2023-01-29T12:20:24.242Z,81.06
2023-01-29T12:23:58.358Z,81.49
2023-01-29T12:27:46.688Z,83.22
2023-01-29T12:31:12.622Z,83.41
2023-01-29T12:34:33.753Z,83.22
2023-01-29T12:38:21.887Z,82.79
2023-01-29T12:41:34.243Z,82.34
2023-01-29T12:45:08.723Z,82.00
2023-01-29T12:48:26.804Z,82.78
2023-01-29T12:51:43.292Z,81.52
2023-01-29T12:55:20.891Z,81.69
2023-01-29T12:58:36.545Z,81.74
2023-01-29T13:01:56.784Z,80.85
2023-01-29T13:05:38.718Z,79.82
2023-01-29T13:09:07.503Z,79.96
2023-01-29T13:12:20.882Z,79.94
2023-01-29T13:15:40.805Z,78.86
2023-01-29T13:19:00.618Z,79.59
2023-01-29T13:22:22.776Z,78.25
2023-01-29T13:25:35.417Z,78.65
2023-01-29T13:28:47.896Z,78.20
2023-01-29T13:32:01.537Z,78.71
2023-01-29T13:35:14.337Z,77.18
2023-01-29T13:38:29.493Z,77.51
2023-01-29T13:41:42.544Z,77.60
2023-01-29T13:44:56.334Z,77.71
2023-01-29T13:48:18.695Z,75.98
2023-01-29T13:51:35.308Z,76.48
2023-01-29T13:55:02.588Z,75.16
2023-01-29T13:58:18.743Z,74.96
2023-01-29T14:01:49.318Z,75.25
2023-01-29T14:05:29.546Z,75.70
2023-01-29T14:08:47.398Z,75.52
2023-01-29T14:12:00.112Z,75.79
2023-01-29T14:15:19.095Z,76.51
2023-01-29T14:18:34.735Z,76.25
2023-01-29T14:21:49.191Z,76.45
2023-01-29T14:25:04.773Z,76.50
2023-01-29T14:28:21.379Z,74.78
2023-01-29T14:31:44.185Z,76.00
2023-01-29T14:35:03.899Z,76.08
2023-01-29T14:38:16.686Z,76.97
2023-01-29T14:41:33.184Z,76.37
2023-01-29T14:44:45.858Z,76.71
2023-01-29T14:48:21.215Z,75.75
2023-01-29T14:51:35.810Z,75.54
2023-01-29T14:54:48.288Z,75.42
2023-01-29T14:58:00.959Z,75.84
2023-01-29T15:01:22.499Z,76.34
2023-01-29T15:04:41.876Z,72.08
2023-01-29T15:08:04.783Z,69.80
2023-01-29T15:11:37.707Z,70.20
2023-01-29T15:15:14.949Z,70.43
2023-01-29T15:18:47.987Z,71.53
2023-01-29T15:22:13.337Z,73.21
2023-01-29T15:25:25.917Z,73.79
2023-01-29T15:28:38.814Z,76.04
2023-01-29T15:31:51.611Z,76.02
2023-01-29T15:35:36.807Z,76.95
2023-01-29T15:38:49.489Z,77.09
2023-01-29T15:42:11.476Z,78.30
2023-01-29T15:45:33.463Z,78.83
2023-01-29T15:48:45.813Z,78.94
2023-01-29T15:51:59.739Z,80.53
2023-01-29T15:55:12.079Z,81.20
2023-01-29T15:58:29.496Z,81.86
2023-01-29T16:01:42.874Z,82.16
2023-01-29T16:04:55.543Z,82.50
2023-01-29T16:08:12.889Z,83.30
2023-01-29T16:11:25.556Z,83.33
2023-01-29T16:14:37.897Z,83.41
2023-01-29T16:17:50.743Z,84.34
2023-01-29T16:21:17.214Z,84.90
2023-01-29T16:24:31.283Z,85.29
2023-01-29T16:27:43.924Z,85.40
2023-01-29T16:31:02.663Z,85.46
2023-01-29T16:34:19.543Z,86.12
2023-01-29T16:37:36.401Z,85.86
2023-01-29T16:41:14.707Z,85.64
2023-01-29T16:44:40.869Z,86.07
2023-01-29T16:48:00.830Z,86.58
2023-01-29T16:51:36.905Z,86.29
2023-01-29T16:54:49.373Z,86.20
2023-01-29T16:58:04.586Z,86.81
2023-01-29T17:01:16.983Z,86.26
2023-01-29T17:04:29.721Z,85.62
2023-01-29T17:07:44.243Z,85.62
2023-01-29T17:10:56.890Z,85.82
2023-01-29T17:14:09.603Z,85.95
2023-01-29T17:17:22.393Z,85.98
2023-01-29T17:20:34.757Z,85.55
2023-01-29T17:23:47.440Z,85.75
2023-01-29T17:27:00.806Z,85.46
2023-01-29T17:30:15.440Z,85.77
2023-01-29T17:33:27.829Z,85.68
2023-01-29T17:36:43.930Z,85.65
2023-01-29T17:39:56.380Z,85.89
2023-01-29T17:43:11.700Z,85.15
2023-01-29T17:46:24.061Z,85.34
2023-01-29T17:49:37.459Z,85.44
2023-01-29T17:52:50.349Z,85.64
2023-01-29T17:56:02.981Z,84.91
2023-01-29T17:59:16.903Z,84.17
2023-01-29T18:02:30.088Z,83.53
2023-01-29T18:05:46.816Z,83.39
2023-01-29T18:08:59.176Z,83.37
2023-01-29T18:12:11.904Z,82.87
2023-01-29T18:15:24.204Z,83.47
2023-01-29T18:18:37.692Z,84.06
2023-01-29T18:21:50.314Z,84.52
2023-01-29T18:25:02.949Z,84.92
2023-01-29T18:28:17.139Z,85.11
2023-01-29T18:31:29.852Z,85.43
2023-01-29T18:34:42.320Z,86.12
2023-01-29T18:37:55.088Z,87.32
2023-01-29T18:41:10.630Z,87.42
2023-01-29T18:44:23.316Z,86.87
2023-01-29T18:47:35.621Z,87.08
2023-01-29T18:50:48.241Z,87.60
2023-01-29T18:54:01.124Z,87.21
2023-01-29T18:57:43.692Z,87.50
2023-01-29T19:00:46.427Z,87.58
2023-01-29T19:04:00.342Z,87.55
2023-01-29T19:07:13.485Z,87.83
2023-01-29T19:10:26.365Z,87.65
2023-01-29T19:13:38.782Z,88.14
2023-01-29T19:16:51.530Z,88.86
2023-01-29T19:20:04.832Z,88.99
2023-01-29T19:23:17.456Z,89.27
2023-01-29T19:26:33.949Z,89.36
2023-01-29T19:29:46.672Z,90.19
2023-01-29T19:32:58.999Z,90.84
2023-01-29T19:36:13.227Z,90.28
2023-01-29T19:39:29.899Z,91.24
2023-01-29T19:42:43.658Z,90.59
2023-01-29T19:46:00.430Z,91.09
2023-01-29T19:49:13.083Z,91.08
2023-01-29T19:52:51.213Z,91.27
2023-01-29T19:56:06.257Z,91.31
2023-01-29T19:59:19.175Z,91.27
2023-01-29T20:02:32.479Z,91.70
2023-01-29T20:05:45.072Z,91.52
2023-01-29T20:08:57.408Z,91.45
2023-01-29T20:12:10.031Z,91.60
2023-01-29T20:15:22.554Z,91.40
2023-01-29T20:18:35.151Z,91.95
2023-01-29T20:21:48.912Z,91.87
2023-01-29T20:25:01.638Z,91.87
2023-01-29T20:28:15.149Z,92.76
2023-01-29T20:31:27.789Z,92.67
2023-01-29T20:34:40.956Z,92.71
2023-01-29T20:37:53.582Z,91.88
2023-01-29T20:41:16.188Z,92.08
2023-01-29T20:44:28.818Z,92.01
2023-01-29T20:47:42.385Z,92.79
2023-01-29T20:50:55.148Z,92.69
2023-01-29T20:54:08.145Z,93.85
2023-01-29T20:57:20.999Z,93.33
2023-01-29T21:00:33.522Z,93.22
2023-01-29T21:03:46.616Z,94.09
2023-01-29T21:06:58.921Z,94.22
2023-01-29T21:10:11.672Z,92.92
2023-01-29T21:13:24.038Z,94.19
2023-01-29T21:16:36.701Z,94.23
2023-01-29T21:19:50.207Z,94.02
2023-01-29T21:23:05.254Z,95.06
2023-01-29T21:26:19.066Z,95.12
2023-01-29T21:29:31.757Z,95.27
2023-01-29T21:32:44.140Z,96.28
2023-01-29T21:35:59.700Z,97.21
2023-01-29T21:39:17.996Z,97.00
2023-01-29T21:42:49.257Z,97.04
2023-01-29T21:46:11.406Z,97.79
2023-01-29T21:49:24.283Z,97.38
2023-01-29T21:52:36.598Z,97.20
2023-01-29T21:55:49.236Z,97.60
2023-01-29T21:59:02.432Z,97.33
2023-01-29T22:02:15.254Z,96.92
2023-01-29T22:05:29.216Z,97.51
2023-01-29T22:08:41.600Z,97.00
2023-01-29T22:11:54.406Z,96.61
2023-01-29T22:15:07.742Z,96.52
2023-01-29T22:18:20.411Z,95.33
2023-01-29T22:21:35.072Z,95.20
2023-01-29T22:24:48.638Z,95.10
2023-01-29T22:28:00.997Z,95.52
2023-01-29T22:31:13.707Z,95.55
2023-01-29T22:34:26.011Z,96.23
2023-01-29T22:37:38.618Z,95.94
2023-01-29T22:40:54.200Z,95.23
2023-01-29T22:44:06.911Z,96.26
2023-01-29T22:47:19.277Z,95.53
2023-01-29T22:50:31.914Z,95.84
2023-01-29T22:53:54.382Z,96.01
2023-01-29T22:57:07.092Z,96.03
2023-01-29T23:00:20.083Z,95.76
2023-01-29T23:03:32.928Z,96.30
2023-01-29T23:06:45.255Z,96.27
2023-01-29T23:09:58.115Z,96.95
2023-01-29T23:13:10.507Z,97.21
2023-01-29T23:16:26.791Z,97.21
2023-01-29T23:19:40.038Z,97.70
2023-01-29T23:22:52.617Z,97.62
2023-01-29T23:26:24.683Z,97.64
2023-01-29T23:29:37.400Z,97.81
2023-01-29T23:32:50.101Z,97.52
2023-01-29T23:36:02.765Z,97.73
2023-01-29T23:39:15.305Z,97.74
2023-01-29T23:42:27.910Z,97.86
2023-01-29T23:45:41.292Z,97.06
2023-01-29T23:48:53.912Z,96.96
2023-01-29T23:52:06.267Z,97.10
2023-01-29T23:55:18.911Z,97.37
2023-01-29T23:58:31.486Z,98.25
